sensor_id;sensor_type;location;lat;lon;timestamp;P1;durP1;ratioP1;P2;durP2;ratioP2
19812;SDS011;10066;48.108;11.448;2024-02-23T00:02:05;0.50;;;0.30;;
19812;SDS011;10066;48.108;11.448;2024-02-23T00:04:32;0.63;;;0.30;;
19812;SDS011;10066;48.108;11.448;2024-02-23T00:07:00;0.60;;;0.40;;
19812;SDS011;10066;48.108;11.448;2024-02-23T00:09:28;0.30;;;0.30;;
19812;SDS011;10066;48.108;11.448;2024-02-23T00:11:55;0.30;;;0.30;;
19812;SDS011;10066;48.108;11.448;2024-02-23T00:14:24;0.83;;;0.27;;
19812;SDS011;10066;48.108;11.448;2024-02-23T00:16:51;0.20;;;0.20;;
19812;SDS011;10066;48.108;11.448;2024-02-23T00:19:18;0.30;;;0.30;;
19812;SDS011;10066;48.108;11.448;2024-02-23T00:21:45;0.30;;;0.20;;
19812;SDS011;10066;48.108;11.448;2024-02-23T00:24:15;1.23;;;0.20;;
19812;SDS011;10066;48.108;11.448;2024-02-23T00:26:42;1.43;;;0.20;;
19812;SDS011;10066;48.108;11.448;2024-02-23T00:29:09;0.20;;;0.10;;
19812;SDS011;10066;48.108;11.448;2024-02-23T00:31:39;0.40;;;0.40;;
19812;SDS011;10066;48.108;11.448;2024-02-23T00:34:06;0.60;;;0.30;;
19812;SDS011;10066;48.108;11.448;2024-02-23T00:36:35;1.00;;;0.27;;
19812;SDS011;10066;48.108;11.448;2024-02-23T00:39:03;0.30;;;0.20;;
19812;SDS011;10066;48.108;11.448;2024-02-23T00:41:30;0.20;;;0.20;;
19812;SDS011;10066;48.108;11.448;2024-02-23T00:43:57;0.20;;;0.20;;
19812;SDS011;10066;48.108;11.448;2024-02-23T00:46:24;1.70;;;0.20;;
19812;SDS011;10066;48.108;11.448;2024-02-23T00:48:53;0.10;;;0.10;;
19812;SDS011;10066;48.108;11.448;2024-02-23T00:51:20;0.20;;;0.20;;
19812;SDS011;10066;48.108;11.448;2024-02-23T00:53:47;0.20;;;0.20;;
19812;SDS011;10066;48.108;11.448;2024-02-23T00:56:14;0.30;;;0.20;;
19812;SDS011;10066;48.108;11.448;2024-02-23T00:58:41;0.13;;;0.13;;
19812;SDS011;10066;48.108;11.448;2024-02-23T01:01:08;0.40;;;0.30;;
19812;SDS011;10066;48.108;11.448;2024-02-23T01:03:35;0.10;;;0.10;;
19812;SDS011;10066;48.108;11.448;2024-02-23T01:06:03;0.10;;;0.10;;
19812;SDS011;10066;48.108;11.448;2024-02-23T01:08:30;0.20;;;0.20;;
19812;SDS011;10066;48.108;11.448;2024-02-23T01:10:57;0.60;;;0.20;;
19812;SDS011;10066;48.108;11.448;2024-02-23T01:13:25;0.20;;;0.20;;
19812;SDS011;10066;48.108;11.448;2024-02-23T01:15:51;0.17;;;0.17;;
19812;SDS011;10066;48.108;11.448;2024-02-23T01:18:19;0.53;;;0.20;;
19812;SDS011;10066;48.108;11.448;2024-02-23T01:20:46;0.20;;;0.20;;
19812;SDS011;10066;48.108;11.448;2024-02-23T01:23:14;0.20;;;0.20;;
19812;SDS011;10066;48.108;11.448;2024-02-23T01:25:41;0.20;;;0.10;;
19812;SDS011;10066;48.108;11.448;2024-02-23T01:28:09;0.10;;;0.10;;
19812;SDS011;10066;48.108;11.448;2024-02-23T01:30:36;0.20;;;0.20;;
19812;SDS011;10066;48.108;11.448;2024-02-23T01:33:03;0.20;;;0.20;;
19812;SDS011;10066;48.108;11.448;2024-02-23T01:35:30;0.10;;;0.10;;
19812;SDS011;10066;48.108;11.448;2024-02-23T01:37:57;0.17;;;0.17;;
19812;SDS011;10066;48.108;11.448;2024-02-23T01:40:25;1.03;;;0.27;;
19812;SDS011;10066;48.108;11.448;2024-02-23T01:43:00;0.20;;;0.20;;
19812;SDS011;10066;48.108;11.448;2024-02-23T01:45:28;0.20;;;0.10;;
19812;SDS011;10066;48.108;11.448;2024-02-23T01:47:56;0.30;;;0.20;;
19812;SDS011;10066;48.108;11.448;2024-02-23T01:50:23;0.10;;;0.10;;
19812;SDS011;10066;48.108;11.448;2024-02-23T01:52:51;0.17;;;0.17;;
19812;SDS011;10066;48.108;11.448;2024-02-23T01:55:20;0.17;;;0.17;;
19812;SDS011;10066;48.108;11.448;2024-02-23T01:57:49;0.10;;;0.10;;
19812;SDS011;10066;48.108;11.448;2024-02-23T02:00:18;2.80;;;0.20;;
19812;SDS011;10066;48.108;11.448;2024-02-23T02:02:46;0.67;;;0.30;;
19812;SDS011;10066;48.108;11.448;2024-02-23T02:05:14;0.10;;;0.10;;
19812;SDS011;10066;48.108;11.448;2024-02-23T02:07:41;0.20;;;0.17;;
19812;SDS011;10066;48.108;11.448;2024-02-23T02:10:09;0.30;;;0.20;;
19812;SDS011;10066;48.108;11.448;2024-02-23T02:12:36;0.10;;;0.10;;
19812;SDS011;10066;48.108;11.448;2024-02-23T02:15:06;0.50;;;0.20;;
19812;SDS011;10066;48.108;11.448;2024-02-23T02:17:33;0.10;;;0.10;;
19812;SDS011;10066;48.108;11.448;2024-02-23T02:20:02;0.10;;;0.10;;
19812;SDS011;10066;48.108;11.448;2024-02-23T02:22:31;0.10;;;0.10;;
19812;SDS011;10066;48.108;11.448;2024-02-23T02:24:59;0.60;;;0.20;;
19812;SDS011;10066;48.108;11.448;2024-02-23T02:27:26;0.93;;;0.10;;
19812;SDS011;10066;48.108;11.448;2024-02-23T02:29:53;0.20;;;0.20;;
19812;SDS011;10066;48.108;11.448;2024-02-23T02:32:22;0.30;;;0.10;;
19812;SDS011;10066;48.108;11.448;2024-02-23T02:34:49;0.10;;;0.10;;
19812;SDS011;10066;48.108;11.448;2024-02-23T02:37:16;0.37;;;0.13;;
19812;SDS011;10066;48.108;11.448;2024-02-23T02:39:43;0.10;;;0.10;;
19812;SDS011;10066;48.108;11.448;2024-02-23T02:42:10;0.10;;;0.10;;
19812;SDS011;10066;48.108;11.448;2024-02-23T02:44:37;0.60;;;0.30;;
19812;SDS011;10066;48.108;11.448;2024-02-23T02:47:05;0.30;;;0.20;;
19812;SDS011;10066;48.108;11.448;2024-02-23T02:49:34;0.20;;;0.20;;
19812;SDS011;10066;48.108;11.448;2024-02-23T02:52:01;0.20;;;0.20;;
19812;SDS011;10066;48.108;11.448;2024-02-23T02:54:28;0.10;;;0.10;;
19812;SDS011;10066;48.108;11.448;2024-02-23T02:56:55;0.20;;;0.20;;
19812;SDS011;10066;48.108;11.448;2024-02-23T02:59:22;0.10;;;0.10;;
19812;SDS011;10066;48.108;11.448;2024-02-23T03:01:49;0.20;;;0.20;;
19812;SDS011;10066;48.108;11.448;2024-02-23T03:04:16;0.50;;;0.20;;
19812;SDS011;10066;48.108;11.448;2024-02-23T03:06:45;0.10;;;0.10;;
19812;SDS011;10066;48.108;11.448;2024-02-23T03:09:12;0.30;;;0.30;;
19812;SDS011;10066;48.108;11.448;2024-02-23T03:11:39;0.87;;;0.20;;
19812;SDS011;10066;48.108;11.448;2024-02-23T03:14:06;0.47;;;0.20;;
19812;SDS011;10066;48.108;11.448;2024-02-23T03:16:35;0.10;;;0.10;;
19812;SDS011;10066;48.108;11.448;2024-02-23T03:19:02;0.20;;;0.20;;
19812;SDS011;10066;48.108;11.448;2024-02-23T03:21:29;1.17;;;0.23;;
19812;SDS011;10066;48.108;11.448;2024-02-23T03:23:58;0.30;;;0.20;;
19812;SDS011;10066;48.108;11.448;2024-02-23T03:26:25;0.90;;;0.30;;
19812;SDS011;10066;48.108;11.448;2024-02-23T03:28:52;0.20;;;0.20;;
19812;SDS011;10066;48.108;11.448;2024-02-23T03:31:19;0.30;;;0.20;;
19812;SDS011;10066;48.108;11.448;2024-02-23T03:33:46;1.07;;;0.20;;
19812;SDS011;10066;48.108;11.448;2024-02-23T03:36:13;0.30;;;0.23;;
19812;SDS011;10066;48.108;11.448;2024-02-23T03:38:40;0.50;;;0.10;;
19812;SDS011;10066;48.108;11.448;2024-02-23T03:41:09;0.83;;;0.10;;
19812;SDS011;10066;48.108;11.448;2024-02-23T03:43:36;0.20;;;0.20;;
19812;SDS011;10066;48.108;11.448;2024-02-23T03:46:03;1.13;;;0.17;;
19812;SDS011;10066;48.108;11.448;2024-02-23T03:48:32;1.07;;;0.37;;
19812;SDS011;10066;48.108;11.448;2024-02-23T03:50:59;0.97;;;0.30;;
19812;SDS011;10066;48.108;11.448;2024-02-23T03:53:27;0.97;;;0.20;;
19812;SDS011;10066;48.108;11.448;2024-02-23T03:55:54;0.20;;;0.20;;
19812;SDS011;10066;48.108;11.448;2024-02-23T03:58:23;0.57;;;0.20;;
19812;SDS011;10066;48.108;11.448;2024-02-23T04:00:50;0.70;;;0.20;;
19812;SDS011;10066;48.108;11.448;2024-02-23T04:03:18;0.27;;;0.20;;
19812;SDS011;10066;48.108;11.448;2024-02-23T04:05:45;0.40;;;0.30;;
19812;SDS011;10066;48.108;11.448;2024-02-23T04:08:12;0.20;;;0.20;;
19812;SDS011;10066;48.108;11.448;2024-02-23T04:10:39;0.73;;;0.20;;
19812;SDS011;10066;48.108;11.448;2024-02-23T04:13:06;0.27;;;0.20;;
19812;SDS011;10066;48.108;11.448;2024-02-23T04:15:35;0.20;;;0.20;;
19812;SDS011;10066;48.108;11.448;2024-02-23T04:18:02;0.17;;;0.17;;
19812;SDS011;10066;48.108;11.448;2024-02-23T04:20:29;0.60;;;0.20;;
19812;SDS011;10066;48.108;11.448;2024-02-23T04:22:57;0.40;;;0.20;;
19812;SDS011;10066;48.108;11.448;2024-02-23T04:25:24;1.23;;;0.27;;
19812;SDS011;10066;48.108;11.448;2024-02-23T04:27:51;0.20;;;0.20;;
19812;SDS011;10066;48.108;11.448;2024-02-23T04:30:18;0.30;;;0.20;;
19812;SDS011;10066;48.108;11.448;2024-02-23T04:32:46;0.30;;;0.30;;
19812;SDS011;10066;48.108;11.448;2024-02-23T04:35:14;0.30;;;0.20;;
19812;SDS011;10066;48.108;11.448;2024-02-23T04:37:43;0.50;;;0.20;;
19812;SDS011;10066;48.108;11.448;2024-02-23T04:40:10;0.33;;;0.20;;
19812;SDS011;10066;48.108;11.448;2024-02-23T04:42:38;1.33;;;0.30;;
19812;SDS011;10066;48.108;11.448;2024-02-23T04:45:06;0.53;;;0.20;;
19812;SDS011;10066;48.108;11.448;2024-02-23T04:47:33;0.30;;;0.20;;
19812;SDS011;10066;48.108;11.448;2024-02-23T04:50:02;0.73;;;0.20;;
19812;SDS011;10066;48.108;11.448;2024-02-23T04:52:30;0.23;;;0.23;;
19812;SDS011;10066;48.108;11.448;2024-02-23T04:54:57;0.37;;;0.20;;
19812;SDS011;10066;48.108;11.448;2024-02-23T04:57:24;0.40;;;0.30;;
19812;SDS011;10066;48.108;11.448;2024-02-23T04:59:51;1.17;;;0.33;;
19812;SDS011;10066;48.108;11.448;2024-02-23T05:02:18;1.00;;;0.20;;
19812;SDS011;10066;48.108;11.448;2024-02-23T05:04:45;0.30;;;0.30;;
19812;SDS011;10066;48.108;11.448;2024-02-23T05:07:14;0.40;;;0.30;;
19812;SDS011;10066;48.108;11.448;2024-02-23T05:09:41;0.77;;;0.30;;
19812;SDS011;10066;48.108;11.448;2024-02-23T05:12:08;0.20;;;0.20;;
19812;SDS011;10066;48.108;11.448;2024-02-23T05:14:35;0.57;;;0.13;;
19812;SDS011;10066;48.108;11.448;2024-02-23T05:17:02;0.97;;;0.27;;
19812;SDS011;10066;48.108;11.448;2024-02-23T05:19:29;1.90;;;0.30;;
19812;SDS011;10066;48.108;11.448;2024-02-23T05:21:56;0.73;;;0.37;;
19812;SDS011;10066;48.108;11.448;2024-02-23T05:24:25;0.67;;;0.30;;
19812;SDS011;10066;48.108;11.448;2024-02-23T05:26:52;0.23;;;0.20;;
19812;SDS011;10066;48.108;11.448;2024-02-23T05:29:19;0.80;;;0.30;;
19812;SDS011;10066;48.108;11.448;2024-02-23T05:31:48;2.40;;;0.40;;
19812;SDS011;10066;48.108;11.448;2024-02-23T05:34:16;1.40;;;0.50;;
19812;SDS011;10066;48.108;11.448;2024-02-23T05:36:44;0.73;;;0.40;;
19812;SDS011;10066;48.108;11.448;2024-02-23T05:39:11;0.67;;;0.30;;
19812;SDS011;10066;48.108;11.448;2024-02-23T05:41:41;0.40;;;0.33;;
19812;SDS011;10066;48.108;11.448;2024-02-23T05:44:08;0.30;;;0.30;;
19812;SDS011;10066;48.108;11.448;2024-02-23T05:46:36;1.43;;;0.40;;
19812;SDS011;10066;48.108;11.448;2024-02-23T05:49:03;0.93;;;0.40;;
19812;SDS011;10066;48.108;11.448;2024-02-23T05:51:30;0.50;;;0.40;;
19812;SDS011;10066;48.108;11.448;2024-02-23T05:53:57;1.07;;;0.63;;
19812;SDS011;10066;48.108;11.448;2024-02-23T05:56:24;2.27;;;0.40;;
19812;SDS011;10066;48.108;11.448;2024-02-23T05:58:53;0.90;;;0.40;;
19812;SDS011;10066;48.108;11.448;2024-02-23T06:01:20;1.70;;;0.60;;
19812;SDS011;10066;48.108;11.448;2024-02-23T06:03:47;2.67;;;0.40;;
19812;SDS011;10066;48.108;11.448;2024-02-23T06:06:14;1.27;;;0.30;;
19812;SDS011;10066;48.108;11.448;2024-02-23T06:08:41;0.47;;;0.37;;
19812;SDS011;10066;48.108;11.448;2024-02-23T06:11:09;0.63;;;0.50;;
19812;SDS011;10066;48.108;11.448;2024-02-23T06:13:36;1.13;;;0.57;;
19812;SDS011;10066;48.108;11.448;2024-02-23T06:16:09;1.40;;;0.50;;
19812;SDS011;10066;48.108;11.448;2024-02-23T06:18:36;1.03;;;0.57;;
19812;SDS011;10066;48.108;11.448;2024-02-23T06:21:10;0.37;;;0.30;;
19812;SDS011;10066;48.108;11.448;2024-02-23T06:23:39;0.87;;;0.40;;
19812;SDS011;10066;48.108;11.448;2024-02-23T06:26:06;0.90;;;0.50;;
19812;SDS011;10066;48.108;11.448;2024-02-23T06:28:33;0.60;;;0.40;;
19812;SDS011;10066;48.108;11.448;2024-02-23T06:31:02;0.80;;;0.40;;
19812;SDS011;10066;48.108;11.448;2024-02-23T06:33:31;0.83;;;0.50;;
19812;SDS011;10066;48.108;11.448;2024-02-23T06:35:58;2.23;;;0.50;;
19812;SDS011;10066;48.108;11.448;2024-02-23T06:38:25;1.17;;;0.37;;
19812;SDS011;10066;48.108;11.448;2024-02-23T06:40:53;0.70;;;0.40;;
19812;SDS011;10066;48.108;11.448;2024-02-23T06:43:21;1.13;;;0.33;;
19812;SDS011;10066;48.108;11.448;2024-02-23T06:45:48;0.53;;;0.30;;
19812;SDS011;10066;48.108;11.448;2024-02-23T06:48:16;0.60;;;0.40;;
19812;SDS011;10066;48.108;11.448;2024-02-23T06:50:45;0.93;;;0.60;;
19812;SDS011;10066;48.108;11.448;2024-02-23T06:53:12;2.10;;;0.70;;
19812;SDS011;10066;48.108;11.448;2024-02-23T06:55:40;0.90;;;0.67;;
19812;SDS011;10066;48.108;11.448;2024-02-23T06:58:07;0.83;;;0.60;;
19812;SDS011;10066;48.108;11.448;2024-02-23T07:00:35;0.63;;;0.40;;
19812;SDS011;10066;48.108;11.448;2024-02-23T07:03:03;1.07;;;0.50;;
19812;SDS011;10066;48.108;11.448;2024-02-23T07:05:31;1.70;;;0.70;;
19812;SDS011;10066;48.108;11.448;2024-02-23T07:07:59;2.70;;;0.70;;
19812;SDS011;10066;48.108;11.448;2024-02-23T07:10:27;0.80;;;0.50;;
19812;SDS011;10066;48.108;11.448;2024-02-23T07:12:54;2.13;;;0.80;;
19812;SDS011;10066;48.108;11.448;2024-02-23T07:15:21;0.63;;;0.63;;
19812;SDS011;10066;48.108;11.448;2024-02-23T07:17:49;0.73;;;0.50;;
19812;SDS011;10066;48.108;11.448;2024-02-23T07:20:17;1.30;;;0.67;;
19812;SDS011;10066;48.108;11.448;2024-02-23T07:22:44;2.20;;;0.77;;
19812;SDS011;10066;48.108;11.448;2024-02-23T07:25:15;2.37;;;0.63;;
19812;SDS011;10066;48.108;11.448;2024-02-23T07:27:42;0.60;;;0.40;;
19812;SDS011;10066;48.108;11.448;2024-02-23T07:30:10;0.70;;;0.50;;
19812;SDS011;10066;48.108;11.448;2024-02-23T07:32:38;0.70;;;0.60;;
19812;SDS011;10066;48.108;11.448;2024-02-23T07:35:05;0.93;;;0.60;;
19812;SDS011;10066;48.108;11.448;2024-02-23T07:37:32;1.50;;;0.40;;
19812;SDS011;10066;48.108;11.448;2024-02-23T07:39:59;1.33;;;0.57;;
19812;SDS011;10066;48.108;11.448;2024-02-23T07:42:29;4.60;;;0.70;;
19812;SDS011;10066;48.108;11.448;2024-02-23T07:44:56;2.30;;;1.03;;
19812;SDS011;10066;48.108;11.448;2024-02-23T07:47:23;1.53;;;0.60;;
19812;SDS011;10066;48.108;11.448;2024-02-23T07:49:53;1.40;;;0.60;;
19812;SDS011;10066;48.108;11.448;2024-02-23T07:52:20;1.07;;;0.70;;
19812;SDS011;10066;48.108;11.448;2024-02-23T07:54:49;1.93;;;0.40;;
19812;SDS011;10066;48.108;11.448;2024-02-23T07:57:17;1.37;;;0.40;;
19812;SDS011;10066;48.108;11.448;2024-02-23T07:59:45;2.23;;;0.67;;
19812;SDS011;10066;48.108;11.448;2024-02-23T08:02:14;1.77;;;0.60;;
19812;SDS011;10066;48.108;11.448;2024-02-23T08:04:41;1.77;;;0.57;;
19812;SDS011;10066;48.108;11.448;2024-02-23T08:07:09;1.27;;;0.40;;
19812;SDS011;10066;48.108;11.448;2024-02-23T08:09:36;1.30;;;0.50;;
19812;SDS011;10066;48.108;11.448;2024-02-23T08:12:04;0.50;;;0.30;;
19812;SDS011;10066;48.108;11.448;2024-02-23T08:14:31;2.20;;;0.60;;
19812;SDS011;10066;48.108;11.448;2024-02-23T08:17:00;1.13;;;0.50;;
19812;SDS011;10066;48.108;11.448;2024-02-23T08:19:27;3.50;;;0.80;;
19812;SDS011;10066;48.108;11.448;2024-02-23T08:21:54;2.07;;;0.70;;
19812;SDS011;10066;48.108;11.448;2024-02-23T08:24:22;1.50;;;0.50;;
19812;SDS011;10066;48.108;11.448;2024-02-23T08:26:51;1.27;;;0.40;;
19812;SDS011;10066;48.108;11.448;2024-02-23T08:29:18;1.07;;;0.50;;
19812;SDS011;10066;48.108;11.448;2024-02-23T08:31:45;0.83;;;0.50;;
19812;SDS011;10066;48.108;11.448;2024-02-23T08:34:14;0.87;;;0.40;;
19812;SDS011;10066;48.108;11.448;2024-02-23T08:36:42;1.23;;;0.40;;
19812;SDS011;10066;48.108;11.448;2024-02-23T08:39:11;2.10;;;0.53;;
19812;SDS011;10066;48.108;11.448;2024-02-23T08:41:38;0.90;;;0.50;;
19812;SDS011;10066;48.108;11.448;2024-02-23T08:44:05;0.93;;;0.50;;
19812;SDS011;10066;48.108;11.448;2024-02-23T08:46:32;1.67;;;0.60;;
19812;SDS011;10066;48.108;11.448;2024-02-23T08:48:59;1.40;;;0.50;;
19812;SDS011;10066;48.108;11.448;2024-02-23T08:51:28;1.70;;;0.80;;
19812;SDS011;10066;48.108;11.448;2024-02-23T08:53:55;1.70;;;0.53;;
19812;SDS011;10066;48.108;11.448;2024-02-23T08:56:28;0.60;;;0.30;;
19812;SDS011;10066;48.108;11.448;2024-02-23T08:58:55;1.80;;;0.47;;
19812;SDS011;10066;48.108;11.448;2024-02-23T09:01:24;2.00;;;0.70;;
19812;SDS011;10066;48.108;11.448;2024-02-23T09:03:51;3.50;;;0.77;;
19812;SDS011;10066;48.108;11.448;2024-02-23T09:06:18;2.70;;;0.67;;
19812;SDS011;10066;48.108;11.448;2024-02-23T09:08:47;1.83;;;0.50;;
19812;SDS011;10066;48.108;11.448;2024-02-23T09:11:14;2.70;;;0.60;;
19812;SDS011;10066;48.108;11.448;2024-02-23T09:13:43;2.20;;;0.90;;
19812;SDS011;10066;48.108;11.448;2024-02-23T09:16:10;1.17;;;0.60;;
19812;SDS011;10066;48.108;11.448;2024-02-23T09:18:37;1.77;;;0.60;;
19812;SDS011;10066;48.108;11.448;2024-02-23T09:21:04;2.43;;;0.57;;
19812;SDS011;10066;48.108;11.448;2024-02-23T09:23:31;1.90;;;0.47;;
19812;SDS011;10066;48.108;11.448;2024-02-23T09:26:00;2.17;;;0.60;;
19812;SDS011;10066;48.108;11.448;2024-02-23T09:28:29;3.50;;;0.70;;
19812;SDS011;10066;48.108;11.448;2024-02-23T09:30:57;2.37;;;0.73;;
19812;SDS011;10066;48.108;11.448;2024-02-23T09:33:24;5.33;;;1.33;;
19812;SDS011;10066;48.108;11.448;2024-02-23T09:35:51;1.50;;;0.60;;
19812;SDS011;10066;48.108;11.448;2024-02-23T09:38:18;1.00;;;0.50;;
19812;SDS011;10066;48.108;11.448;2024-02-23T09:40:45;1.37;;;0.37;;
19812;SDS011;10066;48.108;11.448;2024-02-23T09:43:14;4.07;;;0.93;;
19812;SDS011;10066;48.108;11.448;2024-02-23T09:45:42;2.30;;;0.53;;
19812;SDS011;10066;48.108;11.448;2024-02-23T09:48:10;2.97;;;1.07;;
19812;SDS011;10066;48.108;11.448;2024-02-23T09:50:38;3.57;;;1.27;;
19812;SDS011;10066;48.108;11.448;2024-02-23T09:53:08;2.63;;;0.60;;
19812;SDS011;10066;48.108;11.448;2024-02-23T09:55:37;2.73;;;0.70;;
19812;SDS011;10066;48.108;11.448;2024-02-23T09:58:04;2.00;;;0.60;;
19812;SDS011;10066;48.108;11.448;2024-02-23T10:00:36;2.20;;;0.43;;
19812;SDS011;10066;48.108;11.448;2024-02-23T10:03:04;1.53;;;0.60;;
19812;SDS011;10066;48.108;11.448;2024-02-23T10:05:32;0.83;;;0.47;;
19812;SDS011;10066;48.108;11.448;2024-02-23T10:07:59;0.60;;;0.40;;
19812;SDS011;10066;48.108;11.448;2024-02-23T10:10:29;1.40;;;0.70;;
19812;SDS011;10066;48.108;11.448;2024-02-23T10:12:57;1.40;;;0.47;;
19812;SDS011;10066;48.108;11.448;2024-02-23T10:15:24;3.27;;;0.60;;
19812;SDS011;10066;48.108;11.448;2024-02-23T10:17:53;1.73;;;0.53;;
19812;SDS011;10066;48.108;11.448;2024-02-23T10:20:20;2.20;;;0.50;;
19812;SDS011;10066;48.108;11.448;2024-02-23T10:22:47;0.73;;;0.40;;
19812;SDS011;10066;48.108;11.448;2024-02-23T10:25:14;2.03;;;0.73;;
19812;SDS011;10066;48.108;11.448;2024-02-23T10:27:42;0.47;;;0.40;;
19812;SDS011;10066;48.108;11.448;2024-02-23T10:30:09;1.50;;;0.40;;
19812;SDS011;10066;48.108;11.448;2024-02-23T10:32:38;1.80;;;0.53;;
19812;SDS011;10066;48.108;11.448;2024-02-23T10:35:09;0.77;;;0.40;;
19812;SDS011;10066;48.108;11.448;2024-02-23T10:37:40;1.50;;;0.50;;
19812;SDS011;10066;48.108;11.448;2024-02-23T10:40:09;0.97;;;0.50;;
19812;SDS011;10066;48.108;11.448;2024-02-23T10:42:38;0.90;;;0.50;;
19812;SDS011;10066;48.108;11.448;2024-02-23T10:45:07;1.67;;;0.60;;
19812;SDS011;10066;48.108;11.448;2024-02-23T10:47:35;0.70;;;0.50;;
19812;SDS011;10066;48.108;11.448;2024-02-23T10:50:03;1.03;;;0.40;;
19812;SDS011;10066;48.108;11.448;2024-02-23T10:52:34;0.83;;;0.47;;
19812;SDS011;10066;48.108;11.448;2024-02-23T10:55:04;2.37;;;0.50;;
19812;SDS011;10066;48.108;11.448;2024-02-23T10:57:35;2.27;;;0.80;;
19812;SDS011;10066;48.108;11.448;2024-02-23T11:00:02;0.93;;;0.40;;
19812;SDS011;10066;48.108;11.448;2024-02-23T11:02:34;1.30;;;0.50;;
19812;SDS011;10066;48.108;11.448;2024-02-23T11:05:05;0.87;;;0.50;;
19812;SDS011;10066;48.108;11.448;2024-02-23T11:07:37;1.30;;;0.40;;
19812;SDS011;10066;48.108;11.448;2024-02-23T11:10:05;3.57;;;0.60;;
19812;SDS011;10066;48.108;11.448;2024-02-23T11:12:34;1.43;;;0.57;;
19812;SDS011;10066;48.108;11.448;2024-02-23T11:15:02;2.23;;;0.47;;
19812;SDS011;10066;48.108;11.448;2024-02-23T11:17:30;3.00;;;0.50;;
19812;SDS011;10066;48.108;11.448;2024-02-23T11:19:57;1.00;;;0.50;;
19812;SDS011;10066;48.108;11.448;2024-02-23T11:22:25;1.90;;;0.60;;
19812;SDS011;10066;48.108;11.448;2024-02-23T11:24:59;0.47;;;0.47;;
19812;SDS011;10066;48.108;11.448;2024-02-23T11:27:30;2.23;;;0.60;;
19812;SDS011;10066;48.108;11.448;2024-02-23T11:30:02;0.87;;;0.40;;
19812;SDS011;10066;48.108;11.448;2024-02-23T11:32:37;1.60;;;0.40;;
19812;SDS011;10066;48.108;11.448;2024-02-23T11:35:06;0.80;;;0.50;;
19812;SDS011;10066;48.108;11.448;2024-02-23T11:37:43;6.87;;;0.50;;
19812;SDS011;10066;48.108;11.448;2024-02-23T11:40:15;1.00;;;0.50;;
19812;SDS011;10066;48.108;11.448;2024-02-23T11:42:44;0.80;;;0.50;;
19812;SDS011;10066;48.108;11.448;2024-02-23T11:45:12;1.07;;;0.30;;
19812;SDS011;10066;48.108;11.448;2024-02-23T11:47:39;1.40;;;0.50;;
19812;SDS011;10066;48.108;11.448;2024-02-23T11:50:08;1.13;;;0.30;;
19812;SDS011;10066;48.108;11.448;2024-02-23T11:52:36;2.57;;;0.43;;
19812;SDS011;10066;48.108;11.448;2024-02-23T11:55:06;0.90;;;0.30;;
19812;SDS011;10066;48.108;11.448;2024-02-23T11:57:36;0.73;;;0.40;;
19812;SDS011;10066;48.108;11.448;2024-02-23T12:00:05;1.73;;;0.33;;
19812;SDS011;10066;48.108;11.448;2024-02-23T12:02:34;1.60;;;0.50;;
19812;SDS011;10066;48.108;11.448;2024-02-23T12:05:02;0.77;;;0.53;;
19812;SDS011;10066;48.108;11.448;2024-02-23T12:07:29;0.77;;;0.30;;
19812;SDS011;10066;48.108;11.448;2024-02-23T12:09:56;0.40;;;0.40;;
19812;SDS011;10066;48.108;11.448;2024-02-23T12:12:23;0.73;;;0.47;;
19812;SDS011;10066;48.108;11.448;2024-02-23T12:14:53;2.50;;;0.47;;
19812;SDS011;10066;48.108;11.448;2024-02-23T12:17:20;0.43;;;0.40;;
19812;SDS011;10066;48.108;11.448;2024-02-23T12:19:47;1.33;;;0.30;;
19812;SDS011;10066;48.108;11.448;2024-02-23T12:22:15;0.60;;;0.40;;
19812;SDS011;10066;48.108;11.448;2024-02-23T12:24:43;2.13;;;0.40;;
19812;SDS011;10066;48.108;11.448;2024-02-23T12:27:12;0.80;;;0.40;;
19812;SDS011;10066;48.108;11.448;2024-02-23T12:29:50;1.53;;;0.30;;
19812;SDS011;10066;48.108;11.448;2024-02-23T12:32:19;1.13;;;0.40;;
19812;SDS011;10066;48.108;11.448;2024-02-23T12:34:47;0.80;;;0.33;;
19812;SDS011;10066;48.108;11.448;2024-02-23T12:37:15;0.30;;;0.30;;
19812;SDS011;10066;48.108;11.448;2024-02-23T12:39:42;1.80;;;0.30;;
19812;SDS011;10066;48.108;11.448;2024-02-23T12:42:09;1.53;;;0.37;;
19812;SDS011;10066;48.108;11.448;2024-02-23T12:44:36;1.60;;;0.30;;
19812;SDS011;10066;48.108;11.448;2024-02-23T12:47:05;0.83;;;0.30;;
19812;SDS011;10066;48.108;11.448;2024-02-23T12:49:32;0.60;;;0.33;;
19812;SDS011;10066;48.108;11.448;2024-02-23T12:51:59;0.80;;;0.23;;
19812;SDS011;10066;48.108;11.448;2024-02-23T12:54:26;1.30;;;0.40;;
19812;SDS011;10066;48.108;11.448;2024-02-23T12:56:53;0.37;;;0.30;;
19812;SDS011;10066;48.108;11.448;2024-02-23T12:59:22;2.77;;;0.37;;
19812;SDS011;10066;48.108;11.448;2024-02-23T13:01:49;1.10;;;0.30;;
19812;SDS011;10066;48.108;11.448;2024-02-23T13:04:17;0.97;;;0.40;;
19812;SDS011;10066;48.108;11.448;2024-02-23T13:06:45;0.30;;;0.23;;
19812;SDS011;10066;48.108;11.448;2024-02-23T13:09:12;1.80;;;0.20;;
19812;SDS011;10066;48.108;11.448;2024-02-23T13:11:39;0.33;;;0.20;;
19812;SDS011;10066;48.108;11.448;2024-02-23T13:14:06;1.40;;;0.40;;
19812;SDS011;10066;48.108;11.448;2024-02-23T13:16:34;0.93;;;0.30;;
19812;SDS011;10066;48.108;11.448;2024-02-23T13:19:02;2.13;;;0.30;;
19812;SDS011;10066;48.108;11.448;2024-02-23T13:21:30;0.50;;;0.30;;
19812;SDS011;10066;48.108;11.448;2024-02-23T13:23:57;0.53;;;0.30;;
19812;SDS011;10066;48.108;11.448;2024-02-23T13:26:24;0.83;;;0.30;;
19812;SDS011;10066;48.108;11.448;2024-02-23T13:28:51;5.83;;;0.50;;
19812;SDS011;10066;48.108;11.448;2024-02-23T13:31:19;0.40;;;0.30;;
19812;SDS011;10066;48.108;11.448;2024-02-23T13:33:47;0.53;;;0.40;;
19812;SDS011;10066;48.108;11.448;2024-02-23T13:36:14;1.23;;;0.40;;
19812;SDS011;10066;48.108;11.448;2024-02-23T13:38:42;1.87;;;0.40;;
19812;SDS011;10066;48.108;11.448;2024-02-23T13:41:10;0.87;;;0.40;;
19812;SDS011;10066;48.108;11.448;2024-02-23T13:43:37;0.60;;;0.40;;
19812;SDS011;10066;48.108;11.448;2024-02-23T13:46:04;2.00;;;0.40;;
19812;SDS011;10066;48.108;11.448;2024-02-23T13:48:32;0.40;;;0.40;;
19812;SDS011;10066;48.108;11.448;2024-02-23T13:50:59;0.97;;;0.40;;
19812;SDS011;10066;48.108;11.448;2024-02-23T13:53:28;3.67;;;0.50;;
19812;SDS011;10066;48.108;11.448;2024-02-23T13:55:57;1.43;;;0.30;;
19812;SDS011;10066;48.108;11.448;2024-02-23T13:58:26;0.47;;;0.30;;
19812;SDS011;10066;48.108;11.448;2024-02-23T14:00:54;0.40;;;0.40;;
19812;SDS011;10066;48.108;11.448;2024-02-23T14:03:21;0.83;;;0.30;;
19812;SDS011;10066;48.108;11.448;2024-02-23T14:05:48;0.20;;;0.20;;
19812;SDS011;10066;48.108;11.448;2024-02-23T14:08:15;1.33;;;0.30;;
19812;SDS011;10066;48.108;11.448;2024-02-23T14:10:42;1.80;;;0.33;;
19812;SDS011;10066;48.108;11.448;2024-02-23T14:13:12;1.23;;;0.40;;
19812;SDS011;10066;48.108;11.448;2024-02-23T14:15:39;0.50;;;0.20;;
19812;SDS011;10066;48.108;11.448;2024-02-23T14:18:06;0.77;;;0.30;;
19812;SDS011;10066;48.108;11.448;2024-02-23T14:20:33;0.37;;;0.27;;
19812;SDS011;10066;48.108;11.448;2024-02-23T14:23:00;0.90;;;0.30;;
19812;SDS011;10066;48.108;11.448;2024-02-23T14:25:27;0.87;;;0.40;;
19812;SDS011;10066;48.108;11.448;2024-02-23T14:27:54;2.00;;;0.40;;
19812;SDS011;10066;48.108;11.448;2024-02-23T14:30:23;0.57;;;0.33;;
19812;SDS011;10066;48.108;11.448;2024-02-23T14:32:50;0.77;;;0.40;;
19812;SDS011;10066;48.108;11.448;2024-02-23T14:35:17;0.47;;;0.23;;
19812;SDS011;10066;48.108;11.448;2024-02-23T14:37:44;1.37;;;0.30;;